LSP weather

Josefa Camejo International Airport
Paraguaná, Falcon, Venezuela

Public forecast

Using degrees Celsius for public forecast. Weather courtesy of forecast.io.

METAR (pilot weather report)

Report is more than 6 hours old.

Retrieved 2018/06/23 10:00 UTC (1 year ago):

SVJC 231000Z NI

TAF (pilot weather forecast)

Forecast is more than 12 hours old.

Retrieved 2019/09/20 00:00 UTC (1 day ago):

TAF SVJC 202200Z 2100/2200 07005KT 9999 BNK016 TX32/17Z TN23/08Z BECMG 2101/2105 11005KT 9999 BKN16